Sutcliffe, Nevada
Current Conditions -  °F | °C
As of 10:35 PM on Friday 28 Nov 2014 (Local Time) from KRTS Reporting Station
Broken Clouds Broken Clouds  
Wind Chill: 37°   Ceiling: 7500
Heat Index: 46°   Visibility: 8mi
Dew Point: 16°   Wind: 35mph
Humidity: 29%   Direction: 240°WSW
Pressure: 29.82"   Gusts: 48mph
Location:  39.8171°N, 119.63°W
Report Text: KRTS 290635Z AUTO 24030G42KT 8SM FEW003 FEW048 BKN075 08/M09 A2982 RMK AO2
Loading
Personal Weather Stations






























Interactive Weather Map New forecast layout! Learn more

10-Day Weather Forecast

Advertisements
Track Severe Weather on mobile